Time;durP1;ratioP1;P1;durP2;ratioP2;P2;SDS_P1;SDS_P2;PMS_P1;PMS_P2;Temp;Humidity;BMP_temperature;BMP_pressure;BME280_temperature;BME280_humidity;BME280_pressure;Samples;Min_cycle;Max_cycle;Signal;HPM_P1;HPM_P2
2024/01/19 00:02:00;;;;;;;14.07;6.35;;;;;;;-3.55;100.00;101146.72;5072990;28;20510;-48
2024/01/19 00:04:28;;;;;;;15.80;7.15;;;;;;;-3.55;100.00;101146.72;5070199;28;20072;-51
2024/01/19 00:06:56;;;;;;;12.57;5.95;;;;;;;-3.57;100.00;101150.13;5069583;28;20674;-49
2024/01/19 00:09:26;;;;;;;10.52;6.10;;;;;;;-3.59;100.00;101151.00;5070668;28;20061;-50
2024/01/19 00:11:54;;;;;;;12.85;7.00;;;;;;;-3.57;100.00;101147.56;5070962;28;20114;-49
2024/01/19 00:14:23;;;;;;;12.15;6.25;;;;;;;-3.56;100.00;101150.97;5072376;28;20500;-52
2024/01/19 00:16:51;;;;;;;12.20;6.38;;;;;;;-3.57;100.00;101147.56;5074439;28;20082;-50
2024/01/19 00:19:19;;;;;;;12.15;6.10;;;;;;;-3.56;100.00;101148.41;5073855;28;20506;-50
2024/01/19 00:21:47;;;;;;;12.13;6.68;;;;;;;-3.54;100.00;101154.41;5071174;28;20044;-48
2024/01/19 00:24:16;;;;;;;11.95;6.85;;;;;;;-3.56;100.00;101148.41;5069629;28;20080;-53
2024/01/19 00:26:47;;;;;;;11.77;5.93;;;;;;;-3.57;100.00;101141.59;5070360;28;20040;-49
2024/01/19 00:29:15;;;;;;;10.75;6.00;;;;;;;-3.58;100.00;101145.84;5068532;28;20052;-49
2024/01/19 00:31:46;;;;;;;9.65;6.35;;;;;;;-3.54;100.00;101153.53;5070047;28;20046;-52
2024/01/19 00:34:15;;;;;;;14.52;6.22;;;;;;;-3.52;100.00;101155.25;5069634;28;20060;-50
2024/01/19 00:36:43;;;;;;;14.18;6.38;;;;;;;-3.53;100.00;101157.84;5071192;28;20106;-50
2024/01/19 00:39:12;;;;;;;12.07;6.15;;;;;;;-3.55;100.00;101165.56;5068931;28;20115;-52
2024/01/19 00:41:40;;;;;;;12.52;5.88;;;;;;;-3.55;100.00;101164.72;5068738;28;20052;-49
2024/01/19 00:44:09;;;;;;;12.23;6.20;;;;;;;-3.53;100.00;101171.56;5069369;28;20082;-52
2024/01/19 00:46:37;;;;;;;9.52;5.53;;;;;;;-3.55;100.00;101163.00;5073276;28;20044;-49
2024/01/19 00:49:06;;;;;;;14.50;6.00;;;;;;;-3.53;100.00;101176.72;5069686;28;20471;-49
2024/01/19 00:51:34;;;;;;;12.38;6.60;;;;;;;-3.50;100.00;101183.56;5070204;28;20522;-52
2024/01/19 00:54:02;;;;;;;11.88;5.72;;;;;;;-3.38;100.00;101192.97;5072369;28;20048;-49
2024/01/19 00:56:29;;;;;;;10.30;5.43;;;;;;;-3.38;100.00;101192.97;5073623;28;20518;-49
2024/01/19 00:58:57;;;;;;;16.52;7.32;;;;;;;-3.34;100.00;101189.53;5067849;28;20048;-48
2024/01/19 01:01:27;;;;;;;12.85;5.53;;;;;;;-3.32;100.00;101196.38;5069109;28;20054;-48
2024/01/19 01:03:58;;;;;;;12.88;5.97;;;;;;;-3.21;100.00;101193.78;5068508;28;20045;-50
2024/01/19 01:06:26;;;;;;;12.20;5.00;;;;;;;-3.10;100.00;101198.91;5071921;28;20049;-50
2024/01/19 01:08:58;;;;;;;21.15;5.10;;;;;;;-2.97;100.00;101202.28;5073060;28;20435;-51
2024/01/19 01:11:27;;;;;;;11.38;4.22;;;;;;;-2.86;100.00;101195.41;5073333;28;20101;-51
2024/01/19 01:13:56;;;;;;;11.27;4.80;;;;;;;-2.78;100.00;101208.22;5073309;28;20143;-51
2024/01/19 01:16:26;;;;;;;11.18;4.45;;;;;;;-2.75;100.00;101200.50;5070924;28;20496;-50
2024/01/19 01:18:57;;;;;;;10.50;4.07;;;;;;;-2.64;100.00;101201.31;5068517;28;20052;-50
2024/01/19 01:21:26;;;;;;;10.45;4.18;;;;;;;-2.64;100.00;101201.31;5069715;28;20540;-48
2024/01/19 01:23:54;;;;;;;9.63;3.95;;;;;;;-2.60;100.00;101204.72;5072397;28;20487;-48
2024/01/19 01:26:22;;;;;;;8.43;3.80;;;;;;;-2.52;100.00;101199.53;5069259;28;20045;-49
2024/01/19 01:28:50;;;;;;;9.40;3.92;;;;;;;-2.52;100.00;101192.66;5068892;28;20044;-51
2024/01/19 01:31:19;;;;;;;7.72;3.67;;;;;;;-2.52;100.00;101196.94;5071285;28;20499;-50
2024/01/19 01:33:47;;;;;;;8.57;4.00;;;;;;;-2.55;100.00;101198.69;5072824;28;20055;-51
2024/01/19 01:36:17;;;;;;;8.60;4.18;;;;;;;-2.54;100.00;101207.25;5072423;28;20068;-48
2024/01/19 01:38:45;;;;;;;9.32;4.40;;;;;;;-2.52;100.00;101202.09;5072425;28;20159;-50
2024/01/19 01:41:13;;;;;;;9.65;4.35;;;;;;;-2.51;100.00;101203.81;5072672;28;20040;-50
2024/01/19 01:43:41;;;;;;;7.78;3.88;;;;;;;-2.52;100.00;101202.97;5070740;28;20060;-50
2024/01/19 01:46:09;;;;;;;7.95;4.32;;;;;;;-2.52;100.00;101204.69;5067668;28;20049;-52
2024/01/19 01:48:38;;;;;;;6.40;3.42;;;;;;;-2.52;100.00;101212.41;5069747;28;20052;-51
2024/01/19 01:51:08;;;;;;;5.80;3.80;;;;;;;-2.51;100.00;101206.41;5071551;28;20147;-48
2024/01/19 01:53:38;;;;;;;5.88;3.33;;;;;;;-2.50;100.00;101213.25;5068174;28;20420;-51
2024/01/19 01:56:06;;;;;;;10.60;4.25;;;;;;;-2.50;100.00;101215.84;5070421;28;20515;-52
2024/01/19 01:58:35;;;;;;;6.35;3.30;;;;;;;-2.51;100.00;101222.69;5069151;28;20139;-51
2024/01/19 02:01:05;;;;;;;9.63;3.67;;;;;;;-2.52;100.00;101223.59;5068094;28;20479;-53
2024/01/19 02:03:35;;;;;;;9.30;3.70;;;;;;;-2.49;100.00;101222.72;5066707;28;20113;-49
2024/01/19 02:06:05;;;;;;;7.15;3.28;;;;;;;-2.47;100.00;101224.38;5069686;28;20053;-48
2024/01/19 02:08:33;;;;;;;7.22;3.95;;;;;;;-2.53;100.00;101229.59;5070638;28;20139;-49
2024/01/19 02:11:03;;;;;;;6.03;3.33;;;;;;;-2.56;100.00;101232.19;5068717;28;20045;-52
2024/01/19 02:13:31;;;;;;;5.82;2.83;;;;;;;-2.61;100.00;101239.06;5070084;28;20102;-47
2024/01/19 02:16:00;;;;;;;5.75;2.95;;;;;;;-2.63;100.00;101245.94;5071030;28;20048;-50
2024/01/19 02:18:28;;;;;;;6.93;3.08;;;;;;;-2.66;100.00;101246.78;5066844;28;20066;-52
2024/01/19 02:20:57;;;;;;;6.43;3.00;;;;;;;-2.68;100.00;101238.25;5068488;28;20040;-51
2024/01/19 02:23:28;;;;;;;5.38;2.65;;;;;;;-2.72;100.00;101242.53;5066474;28;20052;-49
2024/01/19 02:25:58;;;;;;;6.82;2.60;;;;;;;-2.73;100.00;101246.00;5068182;28;20534;-48
2024/01/19 02:28:26;;;;;;;4.38;2.53;;;;;;;-2.74;100.00;101239.13;5071442;28;20055;-49
2024/01/19 02:30:54;;;;;;;6.88;2.45;;;;;;;-2.76;100.00;101250.28;5071892;28;20052;-52
2024/01/19 02:33:22;;;;;;;7.03;2.55;;;;;;;-2.78;100.00;101254.56;5071925;28;20117;-49
2024/01/19 02:35:51;;;;;;;5.55;2.05;;;;;;;-2.82;100.00;101256.31;5069796;28;20554;-49
2024/01/19 02:38:19;;;;;;;4.10;2.00;;;;;;;-2.82;100.00;101260.59;5068034;28;20049;-48
2024/01/19 02:40:47;;;;;;;4.30;1.80;;;;;;;-2.84;100.00;101259.75;5067182;28;20048;-50
2024/01/19 02:43:16;;;;;;;3.72;2.10;;;;;;;-2.87;100.00;101258.03;5067742;28;20391;-49
2024/01/19 02:45:45;;;;;;;5.07;1.77;;;;;;;-2.85;100.00;101255.47;5070066;28;20132;-48
2024/01/19 02:48:13;;;;;;;4.20;2.13;;;;;;;-2.83;100.00;101256.31;5067142;28;20507;-47
2024/01/19 02:50:41;;;;;;;4.65;1.85;;;;;;;-2.85;100.00;101263.19;5069457;28;20127;-48
2024/01/19 02:53:09;;;;;;;5.13;1.92;;;;;;;-2.89;100.00;101258.06;5071634;28;20076;-50
2024/01/19 02:55:37;;;;;;;3.38;1.83;;;;;;;-2.91;100.00;101262.34;5071563;28;20047;-48
2024/01/19 02:58:08;;;;;;;5.18;2.10;;;;;;;-2.90;100.00;101270.94;5070553;28;20041;-52
2024/01/19 03:00:37;;;;;;;4.95;2.22;;;;;;;-2.91;100.00;101269.22;5066390;28;20495;-51
2024/01/19 03:03:06;;;;;;;5.72;2.67;;;;;;;-2.94;100.00;101270.06;5066617;28;20813;-48
2024/01/19 03:05:37;;;;;;;4.78;2.40;;;;;;;-2.93;100.00;101270.91;5069524;28;20044;-45
2024/01/19 03:08:08;;;;;;;12.30;3.28;;;;;;;-2.94;100.00;101277.78;5071036;28;20053;-46
2024/01/19 03:10:36;;;;;;;7.05;3.55;;;;;;;-2.93;100.00;101276.06;5071224;28;20045;-47
2024/01/19 03:13:04;;;;;;;8.18;4.03;;;;;;;-2.91;100.00;101274.34;5071285;28;20041;-47
2024/01/19 03:15:32;;;;;;;8.82;4.32;;;;;;;-2.93;100.00;101284.66;5069627;28;20082;-46
2024/01/19 03:18:02;;;;;;;7.47;4.55;;;;;;;-2.92;100.00;101285.50;5067123;28;20044;-45
2024/01/19 03:20:31;;;;;;;9.88;5.00;;;;;;;-2.94;100.00;101287.25;5070500;28;20420;-46
2024/01/19 03:22:59;;;;;;;8.13;5.28;;;;;;;-2.92;100.00;101291.53;5071288;28;20052;-47
2024/01/19 03:25:30;;;;;;;8.90;5.68;;;;;;;-2.93;100.00;101294.09;5071224;28;20056;-46
2024/01/19 03:27:58;;;;;;;11.52;5.63;;;;;;;-2.95;100.00;101288.94;5071223;28;20075;-48
2024/01/19 03:30:27;;;;;;;16.55;6.03;;;;;;;-2.94;100.00;101290.66;5071298;28;20048;-46
2024/01/19 03:32:55;;;;;;;11.52;6.57;;;;;;;-2.94;100.00;101293.25;5071188;28;20068;-45
2024/01/19 03:35:25;;;;;;;10.73;6.63;;;;;;;-2.94;100.00;101300.97;5071356;28;20515;-45
2024/01/19 03:37:53;;;;;;;11.35;6.53;;;;;;;-2.94;100.00;101294.97;5071203;28;20427;-46
2024/01/19 03:40:21;;;;;;;12.20;7.60;;;;;;;-2.95;100.00;101295.81;5071246;28;20042;-47
2024/01/19 03:42:49;;;;;;;11.18;6.78;;;;;;;-2.95;100.00;101299.25;5071119;28;20048;-47
2024/01/19 03:45:18;;;;;;;13.05;7.00;;;;;;;-2.97;100.00;101302.66;5067256;28;20123;-48
2024/01/19 03:47:47;;;;;;;14.80;7.72;;;;;;;-3.00;100.00;101303.56;5067496;28;20052;-45
2024/01/19 03:50:15;;;;;;;10.43;7.03;;;;;;;-3.01;100.00;101307.00;5070652;28;20056;-45
2024/01/19 03:52:45;;;;;;;12.02;7.15;;;;;;;-3.02;100.00;101310.41;5069686;28;20052;-44
2024/01/19 03:55:13;;;;;;;14.40;7.80;;;;;;;-3.02;100.00;101320.72;5068917;28;20514;-46
2024/01/19 03:57:44;;;;;;;11.43;7.03;;;;;;;-3.04;100.00;101312.16;5067237;28;20078;-45
2024/01/19 04:00:13;;;;;;;11.77;7.38;;;;;;;-3.03;100.00;101319.00;5070405;28;20050;-47
2024/01/19 04:02:41;;;;;;;12.13;7.28;;;;;;;-3.06;100.00;101319.00;5070105;28;20048;-46
2024/01/19 04:05:09;;;;;;;17.58;7.22;;;;;;;-3.05;100.00;101325.88;5066819;28;20051;-49
2024/01/19 04:07:37;;;;;;;11.23;7.03;;;;;;;-3.07;100.00;101320.72;5067271;28;20094;-48
2024/01/19 04:10:08;;;;;;;11.45;7.93;;;;;;;-3.05;100.00;101325.88;5069661;28;20045;-48
2024/01/19 04:12:36;;;;;;;12.95;7.22;;;;;;;-3.05;100.00;101328.44;5072101;28;20041;-50
2024/01/19 04:15:06;;;;;;;13.63;7.03;;;;;;;-3.04;100.00;101330.16;5069970;28;20041;-49
2024/01/19 04:17:34;;;;;;;17.23;7.32;;;;;;;-3.01;100.00;101331.84;5069794;28;20053;-50
2024/01/19 04:20:04;;;;;;;14.23;7.22;;;;;;;-3.00;100.00;101334.44;5069965;28;20049;-48
2024/01/19 04:22:33;;;;;;;10.95;7.07;;;;;;;-3.02;100.00;101336.16;5070222;28;20613;-47
2024/01/19 04:25:01;;;;;;;13.13;6.38;;;;;;;-3.01;100.00;101339.56;5070655;28;20076;-46
2024/01/19 04:27:31;;;;;;;14.30;6.88;;;;;;;-3.03;100.00;101338.72;5070821;28;20044;-45
2024/01/19 04:29:59;;;;;;;11.20;6.80;;;;;;;-3.04;100.00;101343.03;5074187;28;20411;-46
2024/01/19 04:32:27;;;;;;;15.07;7.32;;;;;;;-3.02;100.00;101348.19;5074018;28;20045;-45
2024/01/19 04:34:56;;;;;;;10.25;7.00;;;;;;;-3.03;100.00;101362.75;5074082;28;20071;-45
2024/01/19 04:37:24;;;;;;;13.65;6.55;;;;;;;-3.02;100.00;101371.34;5074109;28;20082;-46
2024/01/19 04:39:52;;;;;;;12.00;6.70;;;;;;;-3.03;100.00;101380.75;5073667;28;20569;-45
2024/01/19 04:42:21;;;;;;;10.85;6.55;;;;;;;-2.99;100.00;101387.63;5070140;28;20391;-47
2024/01/19 04:44:51;;;;;;;15.05;7.38;;;;;;;-2.98;100.00;101391.06;5071170;28;20060;-47
2024/01/19 04:47:19;;;;;;;11.60;6.88;;;;;;;-2.97;100.00;101395.34;5074150;28;20055;-46
2024/01/19 04:49:50;;;;;;;13.90;6.90;;;;;;;-2.98;100.00;101401.38;5074016;28;20487;-45
2024/01/19 04:52:18;;;;;;;13.32;7.78;;;;;;;-2.95;100.00;101403.94;5072901;28;20044;-48
2024/01/19 04:54:46;;;;;;;11.98;6.97;;;;;;;-2.96;100.00;101397.06;5068811;28;20109;-48
2024/01/19 04:57:15;;;;;;;12.50;7.20;;;;;;;-2.94;100.00;101397.94;5070449;28;20105;-51
2024/01/19 04:59:43;;;;;;;14.10;6.95;;;;;;;-2.96;100.00;101392.78;5070761;28;20052;-48
2024/01/19 05:02:12;;;;;;;13.30;7.00;;;;;;;-2.96;100.00;101400.50;5068846;28;20036;-51
2024/01/19 05:04:46;;;;;;;11.75;6.68;;;;;;;-2.99;100.00;101409.94;5069498;28;20499;-50
2024/01/19 05:07:15;;;;;;;10.88;7.00;;;;;;;-2.98;100.00;101414.25;5068451;28;20152;-49
2024/01/19 05:09:43;;;;;;;13.20;7.03;;;;;;;-2.93;100.00;101426.25;5069673;28;20059;-48
2024/01/19 05:12:11;;;;;;;10.90;6.88;;;;;;;-2.96;100.00;101431.41;5068812;28;20060;-51
2024/01/19 05:14:39;;;;;;;11.52;6.75;;;;;;;-2.92;100.00;101427.09;5071899;28;20048;-49
2024/01/19 05:17:07;;;;;;;10.18;7.20;;;;;;;-2.95;100.00;101420.22;5069241;28;20056;-50
2024/01/19 05:19:37;;;;;;;11.93;7.00;;;;;;;-2.91;100.00;101426.25;5069647;28;20075;-53
2024/01/19 05:22:04;;;;;;;13.18;6.20;;;;;;;-2.91;100.00;101427.09;5073151;28;20051;-48
2024/01/19 05:24:32;;;;;;;11.57;7.03;;;;;;;-2.90;100.00;101435.69;5071116;28;20051;-51
2024/01/19 05:27:00;;;;;;;13.07;6.82;;;;;;;-2.87;100.00;101438.25;5068388;28;20055;-51
2024/01/19 05:29:28;;;;;;;13.90;6.90;;;;;;;-2.85;100.00;101441.72;5068850;28;20053;-49
2024/01/19 05:31:57;;;;;;;12.20;7.03;;;;;;;-2.83;100.00;101439.97;5068605;28;20032;-45
2024/01/19 05:34:25;;;;;;;11.95;6.72;;;;;;;-2.79;100.00;101451.13;5068560;28;20131;-46
2024/01/19 05:36:54;;;;;;;13.55;6.70;;;;;;;-2.77;100.00;101455.44;5070885;28;20052;-49
2024/01/19 05:39:23;;;;;;;12.85;7.05;;;;;;;-2.74;100.00;101450.28;5071554;28;20404;-45
2024/01/19 05:41:53;;;;;;;13.65;6.68;;;;;;;-2.66;100.00;101451.97;5072847;28;20490;-47
2024/01/19 05:44:21;;;;;;;11.27;6.18;;;;;;;-2.67;100.00;101455.41;5072288;28;20123;-47
2024/01/19 05:46:49;;;;;;;11.65;6.85;;;;;;;-2.64;100.00;101445.13;5068170;28;20143;-48
2024/01/19 05:49:17;;;;;;;12.85;7.07;;;;;;;-2.65;100.00;101453.69;5069763;28;20503;-46
2024/01/19 05:51:46;;;;;;;12.98;6.43;;;;;;;-2.66;100.00;101462.28;5072417;28;20127;-45
2024/01/19 05:54:15;;;;;;;11.48;6.03;;;;;;;-2.67;100.00;101471.75;5072534;28;20044;-46
2024/01/19 05:56:45;;;;;;;11.52;5.55;;;;;;;-2.68;100.00;101476.91;5069287;28;20079;-46
2024/01/19 05:59:13;;;;;;;13.82;5.72;;;;;;;-2.70;100.00;101487.16;5067806;28;20048;-49
2024/01/19 06:01:42;;;;;;;13.43;5.90;;;;;;;-2.72;100.00;101487.16;5068904;28;20040;-47
2024/01/19 06:04:10;;;;;;;10.13;6.03;;;;;;;-2.74;100.00;101493.16;5072280;28;20495;-45
2024/01/19 06:06:38;;;;;;;9.98;5.60;;;;;;;-2.75;100.00;101496.63;5072137;28;20131;-46
2024/01/19 06:09:07;;;;;;;12.43;5.63;;;;;;;-2.66;100.00;101504.34;5071919;28;20048;-45
2024/01/19 06:11:36;;;;;;;11.85;5.28;;;;;;;-2.67;100.00;101505.22;5071438;28;20059;-45
2024/01/19 06:14:05;;;;;;;9.10;5.57;;;;;;;-2.67;100.00;101510.38;5067344;28;20135;-45
2024/01/19 06:16:33;;;;;;;11.02;5.35;;;;;;;-2.63;100.00;101512.09;5069549;28;20045;-46
2024/01/19 06:19:01;;;;;;;11.68;5.68;;;;;;;-2.66;100.00;101512.06;5068301;28;20051;-45
2024/01/19 06:21:29;;;;;;;10.77;5.47;;;;;;;-2.65;100.00;101525.81;5068611;28;20055;-45
2024/01/19 06:23:58;;;;;;;11.57;5.55;;;;;;;-2.64;100.00;101533.53;5067704;28;20123;-47
2024/01/19 06:26:32;;;;;;;13.98;5.45;;;;;;;-2.63;100.00;101534.38;5068956;28;20086;-44
2024/01/19 06:29:02;;;;;;;9.18;5.30;;;;;;;-2.60;100.00;101534.41;5069654;28;20126;-47
2024/01/19 06:31:30;;;;;;;11.23;5.57;;;;;;;-2.58;100.00;101549.00;5066934;28;20040;-46
2024/01/19 06:33:58;;;;;;;11.63;6.28;;;;;;;-2.57;100.00;101542.13;5070983;28;20048;-46
2024/01/19 06:36:27;;;;;;;12.90;5.97;;;;;;;-2.56;100.00;101549.84;5069634;28;20056;-48
2024/01/19 06:38:56;;;;;;;14.85;6.53;;;;;;;-2.52;100.00;101560.16;5071821;28;20051;-45
2024/01/19 06:41:24;;;;;;;13.77;6.60;;;;;;;-2.54;100.00;101565.31;5072033;28;20098;-45
2024/01/19 06:43:53;;;;;;;12.65;6.43;;;;;;;-2.56;100.00;101570.47;5071887;28;20531;-49
2024/01/19 06:46:23;;;;;;;12.80;6.53;;;;;;;-2.55;100.00;101572.19;5071787;28;20560;-47
2024/01/19 06:48:51;;;;;;;12.57;6.78;;;;;;;-2.50;100.00;101577.34;5070269;28;20110;-49
2024/01/19 06:51:21;;;;;;;13.27;6.45;;;;;;;-2.49;100.00;101568.75;5070478;28;20480;-48
2024/01/19 06:53:49;;;;;;;16.00;7.18;;;;;;;-2.50;100.00;101577.34;5067147;28;20036;-46
2024/01/19 06:56:20;;;;;;;13.23;7.75;;;;;;;-2.46;100.00;101580.78;5067640;28;20052;-46
2024/01/19 06:58:48;;;;;;;14.60;6.82;;;;;;;-2.47;100.00;101582.47;5067384;28;20102;-46
2024/01/19 07:01:17;;;;;;;14.07;7.30;;;;;;;-2.46;100.00;101591.09;5067344;28;20130;-45
2024/01/19 07:03:46;;;;;;;13.82;7.47;;;;;;;-2.42;100.00;101590.22;5067623;28;20072;-46
2024/01/19 07:06:14;;;;;;;15.98;7.78;;;;;;;-2.42;100.00;101595.38;5071541;28;20094;-50
2024/01/19 07:08:44;;;;;;;16.48;8.85;;;;;;;-2.42;100.00;101603.97;5069433;28;20132;-49
2024/01/19 07:11:12;;;;;;;20.40;10.77;;;;;;;-2.42;100.00;101611.69;5067955;28;20052;-49
2024/01/19 07:13:42;;;;;;;16.17;10.05;;;;;;;-2.41;100.00;101615.16;5066858;28;20415;-48
2024/01/19 07:16:11;;;;;;;19.67;10.00;;;;;;;-2.41;100.00;101612.56;5066921;28;20606;-51
2024/01/19 07:18:39;;;;;;;20.27;11.07;;;;;;;-2.41;100.00;101618.56;5068335;28;20056;-48
2024/01/19 07:21:09;;;;;;;19.42;10.45;;;;;;;-2.40;100.00;101622.00;5071217;28;20427;-48
2024/01/19 07:23:37;;;;;;;19.40;10.20;;;;;;;-2.40;100.00;101624.56;5071365;28;20045;-48
2024/01/19 07:26:05;;;;;;;16.55;9.93;;;;;;;-2.39;100.00;101623.72;5071393;28;20064;-50
2024/01/19 07:28:34;;;;;;;17.23;10.52;;;;;;;-2.37;100.00;101634.91;5066966;28;20040;-49
2024/01/19 07:31:02;;;;;;;18.08;9.85;;;;;;;-2.36;100.00;101628.03;5068097;28;20055;-48
2024/01/19 07:33:30;;;;;;;23.05;9.93;;;;;;;-2.38;100.00;101634.03;5068584;28;20068;-48
2024/01/19 07:36:00;;;;;;;15.93;9.93;;;;;;;-2.35;100.00;101632.31;5067678;28;20063;-48
2024/01/19 07:38:30;;;;;;;17.75;10.27;;;;;;;-2.36;100.00;101639.19;5070106;28;20113;-48
2024/01/19 07:40:59;;;;;;;16.23;9.27;;;;;;;-2.36;100.00;101640.91;5070539;28;20076;-48
2024/01/19 07:43:30;;;;;;;13.60;8.68;;;;;;;-2.40;100.00;101642.59;5069708;28;20083;-49
2024/01/19 07:45:58;;;;;;;16.92;9.57;;;;;;;-2.39;100.00;101645.22;5071040;28;21019;-49
2024/01/19 07:48:26;;;;;;;17.27;10.43;;;;;;;-2.40;100.00;101648.63;5071359;28;20044;-51
2024/01/19 07:50:54;;;;;;;16.80;9.30;;;;;;;-2.41;100.00;101656.38;5071428;28;20565;-49
2024/01/19 07:53:22;;;;;;;15.95;9.80;;;;;;;-2.42;100.00;101657.22;5069786;28;20087;-49
2024/01/19 07:55:52;;;;;;;17.52;9.65;;;;;;;-2.43;100.00;101655.50;5071073;28;20131;-48
2024/01/19 07:58:21;;;;;;;16.77;8.98;;;;;;;-2.45;100.00;101663.22;5070834;28;20136;-52
2024/01/19 08:00:49;;;;;;;18.30;9.48;;;;;;;-2.43;100.00;101665.81;5072659;28;20044;-52
2024/01/19 08:03:18;;;;;;;17.80;9.40;;;;;;;-2.46;100.00;101655.50;5074575;28;20143;-50
2024/01/19 08:05:49;;;;;;;17.27;9.05;;;;;;;-2.46;100.00;101660.66;5074645;28;20530;-51
2024/01/19 08:08:18;;;;;;;17.75;9.57;;;;;;;-2.47;100.00;101654.63;5073779;28;20136;-48
2024/01/19 08:10:48;;;;;;;19.92;9.40;;;;;;;-2.48;100.00;101657.19;5071336;28;20452;-49
2024/01/19 08:13:18;;;;;;;15.32;9.32;;;;;;;-2.47;100.00;101659.78;5070241;28;20040;-49
2024/01/19 08:15:46;;;;;;;15.55;9.05;;;;;;;-2.47;100.00;101670.06;5073079;28;20078;-51
2024/01/19 08:18:17;;;;;;;16.70;9.90;;;;;;;-2.49;100.00;101670.97;5072871;28;20106;-48
2024/01/19 08:20:46;;;;;;;16.35;9.65;;;;;;;-2.53;100.00;101680.38;5073947;28;20076;-49
2024/01/19 08:23:14;;;;;;;17.25;9.88;;;;;;;-2.52;100.00;101688.97;5070520;28;20052;-47
2024/01/19 08:25:42;;;;;;;19.33;10.00;;;;;;;-2.53;100.00;101690.69;5070849;28;20079;-47
2024/01/19 08:28:10;;;;;;;18.15;8.80;;;;;;;-2.50;100.00;101700.16;5070052;28;20172;-47
2024/01/19 08:30:40;;;;;;;18.70;9.90;;;;;;;-2.50;100.00;101707.88;5069921;28;20052;-48
2024/01/19 08:33:08;;;;;;;16.15;9.38;;;;;;;-2.47;100.00;101711.28;5069831;28;20106;-48
2024/01/19 08:35:36;;;;;;;19.15;9.80;;;;;;;-2.45;100.00;101714.75;5074253;28;20404;-49
2024/01/19 08:38:04;;;;;;;18.50;10.10;;;;;;;-2.43;100.00;101712.19;5073846;28;20040;-48
2024/01/19 08:40:33;;;;;;;18.55;10.20;;;;;;;-2.40;100.00;101717.31;5073972;28;20047;-49
2024/01/19 08:43:01;;;;;;;21.63;11.48;;;;;;;-2.36;100.00;101718.22;5070895;28;20041;-49
2024/01/19 08:45:35;;;;;;;19.63;10.48;;;;;;;-2.34;100.00;101717.34;5069468;28;20051;-50
2024/01/19 08:48:05;;;;;;;20.85;11.40;;;;;;;-2.28;100.00;101724.25;5072977;28;20054;-49
2024/01/19 08:50:34;;;;;;;21.85;11.00;;;;;;;-2.24;100.00;101724.25;5069917;28;20045;-51
2024/01/19 08:53:03;;;;;;;18.85;11.00;;;;;;;-2.22;100.00;101735.44;5068842;28;20045;-48
2024/01/19 08:55:31;;;;;;;18.77;11.75;;;;;;;-2.21;100.00;101729.41;5070293;28;20051;-51
2024/01/19 08:58:02;;;;;;;23.23;10.98;;;;;;;-2.16;100.00;101726.84;5072805;28;20052;-47
2024/01/19 09:00:31;;;;;;;19.45;11.63;;;;;;;-2.15;100.00;101738.03;5073182;28;20514;-45
2024/01/19 09:02:59;;;;;;;18.13;12.23;;;;;;;-2.12;100.00;101736.31;5073565;28;20388;-52
2024/01/19 09:05:34;;;;;;;;;;;;;;;-2.08;100.00;101729.44;5074558;28;20056;-49
2024/01/19 09:08:03;;;;;;;22.92;12.35;;;;;;;-2.04;100.00;101737.16;5070465;28;19931;-49
2024/01/19 09:10:34;;;;;;;20.92;11.32;;;;;;;-1.99;100.00;101736.31;5069924;28;20055;-51
2024/01/19 09:13:05;;;;;;;22.45;11.70;;;;;;;-1.95;100.00;101741.50;5069878;28;20040;-49
2024/01/19 09:15:33;;;;;;;23.55;12.10;;;;;;;-1.85;100.00;101747.53;5073395;28;20044;-49
2024/01/19 09:18:01;;;;;;;25.38;13.23;;;;;;;-1.81;100.00;101762.13;5070823;28;20040;-49
2024/01/19 09:20:30;;;;;;;22.08;13.25;;;;;;;-1.77;100.00;101769.03;5069830;28;20062;-50
2024/01/19 09:23:00;;;;;;;23.40;13.00;;;;;;;-1.74;100.00;101769.00;5069641;28;20052;-50
2024/01/19 09:25:31;;;;;;;26.02;14.20;;;;;;;-1.74;100.00;101770.75;5073015;28;20036;-46
2024/01/19 09:27:59;;;;;;;22.77;13.38;;;;;;;-1.73;100.00;101769.88;5073153;28;20411;-47
2024/01/19 09:30:27;;;;;;;25.40;14.20;;;;;;;-1.76;100.00;101773.31;5071545;28;20052;-48
2024/01/19 09:32:56;;;;;;;25.55;13.13;;;;;;;-1.76;100.00;101775.91;5068728;28;20047;-48
2024/01/19 09:35:24;;;;;;;24.38;13.60;;;;;;;-1.74;100.00;101783.63;5071962;28;20044;-48
2024/01/19 09:37:52;;;;;;;23.00;14.10;;;;;;;-1.71;100.00;101781.06;5073038;28;20056;-47
2024/01/19 09:40:22;;;;;;;27.98;14.18;;;;;;;-1.67;100.00;101792.25;5072951;28;20048;-47
2024/01/19 09:42:55;;;;;;;27.40;14.63;;;;;;;-1.63;100.00;101789.66;5073309;28;20059;-49
2024/01/19 09:45:27;;;;;;;29.83;14.95;;;;;;;-1.61;100.00;101798.28;5072935;28;20052;-48
2024/01/19 09:48:09;;;;;;;24.40;14.55;;;;;;;-1.61;100.00;101798.28;5073085;28;20047;-50
2024/01/19 09:50:37;;;;;;;27.33;14.75;;;;;;;-1.55;100.00;101813.75;5072803;28;20511;-49
2024/01/19 09:53:12;;;;;;;27.15;15.15;;;;;;;-1.54;100.00;101802.56;5072543;28;20049;-48
2024/01/19 09:55:41;;;;;;;26.13;14.77;;;;;;;-1.50;100.00;101799.97;5072270;28;20044;-53
2024/01/19 09:58:10;;;;;;;29.88;14.75;;;;;;;-1.50;100.00;101805.16;5072047;28;20074;-54
2024/01/19 10:00:38;;;;;;;23.55;14.95;;;;;;;-1.42;100.00;101811.16;5072331;28;20060;-47
2024/01/19 10:03:09;;;;;;;27.17;16.10;;;;;;;-1.41;100.00;101818.91;5070804;28;20804;-48
2024/01/19 10:05:40;;;;;;;26.83;15.45;;;;;;;-1.36;100.00;101816.34;5069288;28;20495;-48
2024/01/19 10:08:09;;;;;;;31.02;16.05;;;;;;;-1.34;100.00;101822.34;5070896;28;20712;-49
2024/01/19 10:10:43;;;;;;;27.25;15.45;;;;;;;-1.28;100.00;101834.38;5072390;28;20045;-48
2024/01/19 10:13:11;;;;;;;;;;;;;;;-1.26;100.00;101841.28;5068034;28;20060;-48
2024/01/19 10:15:39;;;;;;;26.05;14.93;;;;;;;-1.20;100.00;101845.56;5068817;28;19951;-48
2024/01/19 10:18:08;;;;;;;27.48;14.70;;;;;;;-1.17;100.00;101853.34;5068453;28;20434;-50
2024/01/19 10:20:39;;;;;;;24.55;14.35;;;;;;;-1.15;100.00;101856.78;5067746;28;20068;-51
2024/01/19 10:23:21;;;;;;;23.10;14.20;;;;;;;-1.09;100.00;101855.91;5067724;28;20059;-49
2024/01/19 10:25:50;;;;;;;23.23;13.82;;;;;;;-0.97;100.00;101857.63;5072046;28;20056;-50
2024/01/19 10:28:33;;;;;;;23.45;13.98;;;;;;;-0.91;100.00;101860.22;5072193;28;20048;-50
2024/01/19 10:31:15;;;;;;;;;;;;;;;-0.88;100.00;101858.47;5070459;28;20040;-48
2024/01/19 10:33:53;;;;;;;24.08;13.25;;;;;;;-0.83;100.00;101857.59;5068482;28;19924;-48
2024/01/19 10:36:22;;;;;;;21.13;12.68;;;;;;;-0.79;100.00;101851.56;5071862;28;20365;-49
2024/01/19 10:38:50;;;;;;;22.73;13.30;;;;;;;-0.74;100.00;101855.00;5070724;28;20045;-50
2024/01/19 10:41:26;;;;;;;22.05;12.77;;;;;;;-0.73;100.00;101848.97;5068635;28;20302;-48
2024/01/19 10:44:10;;;;;;;21.73;12.73;;;;;;;-0.68;100.00;101855.84;5070658;28;20058;-51
2024/01/19 10:46:39;;;;;;;19.45;11.63;;;;;;;-0.63;100.00;101847.22;5066933;28;20220;-49
2024/01/19 10:49:10;;;;;;;21.08;11.43;;;;;;;-0.60;100.00;101853.28;5068155;28;20052;-49
2024/01/19 10:51:39;;;;;;;18.95;11.35;;;;;;;-0.51;100.00;101852.38;5068874;28;20044;-49
2024/01/19 10:54:10;;;;;;;20.80;11.35;;;;;;;-0.47;100.00;101854.09;5068698;28;20040;-49
2024/01/19 10:56:39;;;;;;;17.00;10.40;;;;;;;-0.34;100.00;101852.34;5068392;28;20110;-51
2024/01/19 10:59:12;;;;;;;16.50;11.05;;;;;;;-0.32;100.00;101855.75;5068371;28;20478;-49
2024/01/19 11:01:40;;;;;;;;;;;;;;;-0.27;100.00;101861.78;5072176;28;20555;-49
2024/01/19 11:04:10;;;;;;;18.33;9.77;;;;;;;-0.20;100.00;101852.28;5069614;28;19966;-51
2024/01/19 11:06:39;;;;;;;19.02;10.80;;;;;;;-0.13;100.00;101851.38;5067919;28;20113;-53
2024/01/19 11:09:08;;;;;;;17.92;10.43;;;;;;;-0.08;100.00;101847.03;5069922;28;20139;-52
2024/01/19 11:11:47;;;;;;;22.13;10.48;;;;;;;-0.02;100.00;101849.59;5068512;28;20147;-53
2024/01/19 11:14:18;;;;;;;18.00;9.73;;;;;;;0.01;100.00;101851.28;5067701;28;20139;-50
2024/01/19 11:16:48;;;;;;;18.48;8.52;;;;;;;0.07;100.00;101861.63;5067779;28;20111;-50
2024/01/19 11:19:18;;;;;;;15.40;9.40;;;;;;;0.06;100.00;101857.31;5067859;28;20052;-49